Time;durP1;ratioP1;P1;durP2;ratioP2;P2;SDS_P1;SDS_P2;PMS_P1;PMS_P2;Temp;Humidity;BMP_temperature;BMP_pressure;BME280_temperature;BME280_humidity;BME280_pressure;Samples;Min_cycle;Max_cycle;Signal;HPM_P1;HPM_P2
2023/05/14 00:02:13;;;;;;;10.98;6.38;;;;;;;12.88;63.29;101377.75;5068829;28;20048;-73
2023/05/14 00:04:40;;;;;;;9.02;6.45;;;;;;;12.87;63.33;101378.66;5091025;28;20693;-74
2023/05/14 00:07:07;;;;;;;10.00;6.57;;;;;;;12.85;63.73;101373.47;5077053;28;20047;-74
2023/05/14 00:09:34;;;;;;;8.30;7.05;;;;;;;12.83;63.80;101369.19;5089779;28;20041;-74
2023/05/14 00:12:02;;;;;;;9.10;5.95;;;;;;;12.83;63.75;101377.13;5090987;28;20058;-73
2023/05/14 00:14:29;;;;;;;12.45;6.65;;;;;;;12.82;63.43;101378.06;5087165;28;20052;-74
2023/05/14 00:16:58;;;;;;;8.20;6.20;;;;;;;12.79;63.67;101376.47;5086518;28;20419;-74
2023/05/14 00:19:25;;;;;;;10.15;5.93;;;;;;;12.78;63.73;101368.63;5087982;28;20045;-74
2023/05/14 00:21:53;;;;;;;8.40;6.72;;;;;;;12.76;63.98;101359.94;5088907;28;20137;-74
2023/05/14 00:24:20;;;;;;;8.77;6.28;;;;;;;12.73;63.98;101366.22;5089643;28;20575;-73
2023/05/14 00:26:47;;;;;;;8.98;6.18;;;;;;;12.72;63.59;101359.25;5073411;28;20062;-73
2023/05/14 00:29:14;;;;;;;8.68;5.47;;;;;;;12.72;63.84;101367.19;5089724;28;20179;-73
2023/05/14 00:31:42;;;;;;;11.20;6.30;;;;;;;12.68;64.28;101363.84;5078686;28;20131;-74
2023/05/14 00:34:09;;;;;;;8.85;6.00;;;;;;;12.66;64.17;101363.09;5092306;28;20078;-75
2023/05/14 00:36:36;;;;;;;8.10;5.72;;;;;;;12.63;64.41;101360.63;5086463;28;20051;-74
2023/05/14 00:39:03;;;;;;;9.70;6.00;;;;;;;12.62;64.03;101356.28;5068132;28;20139;-74
2023/05/14 00:41:31;;;;;;;7.85;4.68;;;;;;;12.64;64.11;101356.19;5081456;28;20143;-74
2023/05/14 00:43:58;;;;;;;10.68;5.18;;;;;;;12.64;64.11;101350.91;5084949;28;20116;-74
2023/05/14 00:46:25;;;;;;;9.52;5.45;;;;;;;12.64;64.12;101342.97;5087514;28;20083;-74
2023/05/14 00:48:53;;;;;;;9.68;5.95;;;;;;;12.64;63.69;101349.09;5091458;28;20572;-73
2023/05/14 00:51:21;;;;;;;8.18;6.03;;;;;;;12.64;63.77;101345.63;5092054;28;20703;-74
2023/05/14 00:54:14;;;;;;;6.55;5.40;;;;;;;12.64;64.08;101349.09;5083885;28;20062;-73
2023/05/14 00:56:45;;;;;;;11.30;6.05;;;;;;;12.64;63.80;101337.69;5080200;28;20048;-74
2023/05/14 00:59:13;;;;;;;9.75;5.68;;;;;;;12.65;63.73;101340.25;5082165;28;20127;-73
2023/05/14 01:01:40;;;;;;;6.65;5.30;;;;;;;12.65;63.76;101340.25;5077647;28;20085;-75
2023/05/14 01:04:08;;;;;;;6.78;5.22;;;;;;;12.63;63.67;101339.47;5073208;28;20130;-73
2023/05/14 01:06:51;;;;;;;9.30;5.45;;;;;;;12.63;63.97;101342.13;5081958;28;20155;-72
2023/05/14 01:09:25;;;;;;;7.25;5.40;;;;;;;12.60;63.99;101347.56;5088973;28;20048;-74
2023/05/14 01:12:11;;;;;;;11.17;5.93;;;;;;;12.57;64.45;101342.47;5067793;28;20143;-74
2023/05/14 01:14:47;;;;;;;9.25;5.75;;;;;;;12.53;64.79;101340.94;5077271;28;20211;-73
2023/05/14 01:17:18;;;;;;;10.07;5.70;;;;;;;12.52;64.98;101338.38;5091226;28;20071;-74
2023/05/14 01:19:46;;;;;;;7.47;4.85;;;;;;;12.50;64.96;101345.53;5090698;28;20640;-73
2023/05/14 01:22:15;;;;;;;8.18;5.68;;;;;;;12.48;64.93;101344.78;5076012;28;20056;-73
2023/05/14 01:24:42;;;;;;;6.35;5.30;;;;;;;12.43;65.30;101342.41;5074454;28;20105;-74
2023/05/14 01:27:26;;;;;;;10.88;5.57;;;;;;;12.39;65.68;101338.22;5085074;28;20552;-73
2023/05/14 01:33:30;;;;;;;7.63;4.95;;;;;;;12.34;65.52;101338.47;5082615;28;20051;-73
2023/05/14 01:35:57;;;;;;;9.15;4.82;;;;;;;12.32;65.64;101334.19;5076026;28;20111;-73
2023/05/14 01:38:24;;;;;;;7.68;5.28;;;;;;;12.28;65.43;101333.50;5087607;28;20151;-74
2023/05/14 01:40:52;;;;;;;10.63;5.30;;;;;;;12.25;65.08;101338.09;5087098;28;20054;-74
2023/05/14 01:43:20;;;;;;;10.10;5.35;;;;;;;12.22;65.16;101325.09;5090564;28;20143;-73
2023/05/14 01:45:47;;;;;;;10.75;6.18;;;;;;;12.20;65.38;101326.94;5075497;28;20149;-72
2023/05/14 01:48:14;;;;;;;8.88;5.10;;;;;;;12.17;65.94;101325.34;5091752;28;20471;-73
2023/05/14 01:50:42;;;;;;;7.47;5.35;;;;;;;12.12;66.25;101320.31;5086550;28;20130;-72
2023/05/14 01:53:09;;;;;;;6.50;5.05;;;;;;;12.13;66.15;101326.44;5088444;28;20052;-73
2023/05/14 01:55:36;;;;;;;16.48;5.57;;;;;;;12.11;66.53;101323.00;5079049;28;20040;-73
2023/05/14 01:58:04;;;;;;;10.23;5.30;;;;;;;12.10;66.78;101322.16;5091593;28;20519;-73
2023/05/14 02:00:31;;;;;;;8.02;5.20;;;;;;;12.11;66.68;101320.38;5084094;28;20131;-73
2023/05/14 02:02:58;;;;;;;8.40;5.28;;;;;;;12.13;66.83;101318.50;5084140;28;20434;-73
2023/05/14 02:05:25;;;;;;;7.70;5.10;;;;;;;12.14;66.34;101320.22;5082997;28;20056;-73
2023/05/14 02:07:53;;;;;;;10.85;5.20;;;;;;;12.15;66.60;101320.13;5089640;28;20385;-73
2023/05/14 02:10:20;;;;;;;7.70;5.38;;;;;;;12.18;66.68;101321.75;5091916;28;20068;-73
2023/05/14 02:12:48;;;;;;;8.88;4.82;;;;;;;12.19;66.28;101318.16;5090702;28;20151;-72
2023/05/14 02:15:15;;;;;;;7.53;5.93;;;;;;;12.21;66.32;101315.47;5089659;28;20072;-74
2023/05/14 02:17:42;;;;;;;15.63;5.70;;;;;;;12.23;66.62;101316.22;5087811;28;20135;-72
2023/05/14 02:20:11;;;;;;;9.20;5.35;;;;;;;12.24;66.86;101310.84;5086228;28;20063;-73
2023/05/14 02:22:41;;;;;;;7.78;5.07;;;;;;;12.23;66.55;101317.06;5087888;28;20049;-73
2023/05/14 02:25:08;;;;;;;9.40;5.65;;;;;;;12.25;66.75;101316.97;5087455;28;20504;-73
2023/05/14 02:27:36;;;;;;;7.50;5.05;;;;;;;12.25;67.02;101314.34;5075384;28;20115;-73
2023/05/14 02:30:03;;;;;;;8.55;5.68;;;;;;;12.27;66.91;101312.47;5091068;28;20062;-73
2023/05/14 02:32:43;;;;;;;7.45;5.40;;;;;;;12.27;67.08;101309.84;5089896;28;20082;-74
2023/05/14 02:35:10;;;;;;;10.00;5.75;;;;;;;12.29;67.03;101308.84;5084399;28;20090;-73
2023/05/14 02:37:37;;;;;;;7.13;5.60;;;;;;;12.30;66.84;101307.03;5089530;28;20048;-73
2023/05/14 02:40:06;;;;;;;8.63;5.78;;;;;;;12.30;66.78;101307.91;5071535;28;20044;-73
2023/05/14 02:42:34;;;;;;;6.05;5.45;;;;;;;12.31;67.02;101309.59;5090144;28;20672;-73
2023/05/14 02:45:01;;;;;;;7.97;5.60;;;;;;;12.32;66.72;101306.00;5088024;28;20135;-73
2023/05/14 02:47:28;;;;;;;8.27;5.18;;;;;;;12.32;66.86;101310.44;5088310;28;20899;-75
2023/05/14 02:49:56;;;;;;;10.88;6.20;;;;;;;12.33;66.59;101309.50;5087102;28;20352;-73
2023/05/14 02:52:23;;;;;;;11.35;5.65;;;;;;;12.36;66.52;101304.06;5087796;28;22408;-73
2023/05/14 02:54:50;;;;;;;12.50;5.68;;;;;;;12.36;66.70;101304.91;5090217;28;20060;-74
2023/05/14 02:57:17;;;;;;;6.90;5.30;;;;;;;12.37;67.06;101303.09;5087901;28;20147;-73
2023/05/14 02:59:45;;;;;;;10.15;5.63;;;;;;;12.37;67.06;101303.94;5088776;28;20055;-73
2023/05/14 03:02:12;;;;;;;8.15;6.32;;;;;;;12.37;66.96;101303.94;5086018;28;20056;-73
2023/05/14 03:05:05;;;;;;;13.30;5.35;;;;;;;12.37;66.67;101309.22;5087971;28;20052;-73
2023/05/14 03:07:33;;;;;;;10.95;5.90;;;;;;;12.36;66.61;101315.47;5090990;28;20056;-75
2023/05/14 03:10:00;;;;;;;9.30;5.72;;;;;;;12.37;66.79;101309.22;5085527;28;20755;-74
2023/05/14 03:12:27;;;;;;;16.27;6.30;;;;;;;12.38;66.80;101312.72;5069564;28;20048;-73
2023/05/14 03:14:54;;;;;;;7.95;5.00;;;;;;;12.38;66.96;101313.59;5087245;28;20143;-74
2023/05/14 03:17:22;;;;;;;10.70;5.90;;;;;;;12.39;66.91;101315.31;5071211;28;20131;-73
2023/05/14 03:19:49;;;;;;;8.85;5.55;;;;;;;12.40;66.52;101311.72;5090322;28;20464;-75
2023/05/14 03:22:16;;;;;;;7.65;5.80;;;;;;;12.44;66.49;101314.19;5090218;28;20058;-73
2023/05/14 03:24:43;;;;;;;9.60;5.05;;;;;;;12.45;66.55;101300.91;5083483;28;20078;-73
2023/05/14 03:27:11;;;;;;;8.48;5.25;;;;;;;12.49;66.20;101305.06;5084399;28;20086;-73
2023/05/14 03:29:38;;;;;;;9.88;5.40;;;;;;;12.52;65.46;101307.56;5083755;28;20507;-72
2023/05/14 03:32:05;;;;;;;7.85;5.72;;;;;;;12.56;65.13;101301.16;5086744;28;20120;-73
2023/05/14 03:34:33;;;;;;;10.48;5.47;;;;;;;12.59;65.13;101300.13;5070990;28;20079;-74
2023/05/14 03:37:00;;;;;;;10.38;5.30;;;;;;;12.62;65.47;101307.88;5086176;28;20052;-73
2023/05/14 03:39:27;;;;;;;7.53;5.47;;;;;;;12.64;65.77;101298.91;5087347;28;20052;-73
2023/05/14 03:41:56;;;;;;;8.02;5.78;;;;;;;12.66;66.16;101304.97;5086313;28;20064;-74
2023/05/14 03:44:24;;;;;;;10.30;6.22;;;;;;;12.70;65.93;101303.03;5087385;28;20044;-72
2023/05/14 03:46:51;;;;;;;6.97;5.38;;;;;;;12.72;65.90;101302.91;5087176;28;20167;-73
2023/05/14 03:49:18;;;;;;;7.63;5.10;;;;;;;12.74;65.76;101299.22;5085606;28;20569;-72
2023/05/14 03:51:45;;;;;;;8.90;4.90;;;;;;;12.77;66.06;101300.88;5083884;28;20049;-73
2023/05/14 03:54:13;;;;;;;7.32;5.35;;;;;;;12.80;65.37;101308.63;5083725;28;20127;-73
2023/05/14 03:56:40;;;;;;;19.63;4.93;;;;;;;12.81;64.79;101303.25;5084153;28;20135;-73
2023/05/14 03:59:07;;;;;;;6.47;5.18;;;;;;;12.83;64.49;101301.38;5085939;28;20147;-74
2023/05/14 04:01:34;;;;;;;9.70;5.20;;;;;;;12.85;64.24;101293.34;5084173;28;20512;-74
2023/05/14 04:04:01;;;;;;;8.60;5.10;;;;;;;12.88;64.17;101291.38;5085614;28;20066;-73
2023/05/14 04:06:29;;;;;;;7.03;4.53;;;;;;;12.90;63.32;101291.28;5090278;28;20139;-75
2023/05/14 04:08:57;;;;;;;9.88;4.88;;;;;;;12.91;62.26;101291.19;5094299;28;20076;-74
2023/05/14 04:11:24;;;;;;;9.35;5.00;;;;;;;12.91;61.36;101283.25;5092108;28;20040;-74
2023/05/14 04:13:51;;;;;;;10.00;4.40;;;;;;;12.92;61.99;101295.56;5087242;28;20139;-74
2023/05/14 04:16:18;;;;;;;10.80;5.20;;;;;;;12.93;60.95;101294.63;5085258;28;20135;-72
2023/05/14 04:18:46;;;;;;;9.23;4.93;;;;;;;12.95;60.98;101283.09;5090006;28;20051;-72
2023/05/14 04:21:13;;;;;;;7.97;4.90;;;;;;;12.95;61.08;101286.59;5085811;28;20040;-73
2023/05/14 04:23:40;;;;;;;15.10;5.30;;;;;;;12.97;61.73;101287.38;5090272;28;20136;-73
2023/05/14 04:26:08;;;;;;;7.38;5.22;;;;;;;12.98;61.33;101285.56;5088179;28;20589;-73
2023/05/14 04:28:35;;;;;;;7.50;4.80;;;;;;;12.99;61.55;101280.19;5088349;28;20052;-74
2023/05/14 04:31:02;;;;;;;12.40;5.15;;;;;;;13.02;61.67;101290.59;5093357;28;20047;-74
2023/05/14 04:33:29;;;;;;;7.88;4.88;;;;;;;13.05;61.73;101289.53;5098079;28;20718;-73
2023/05/14 04:35:57;;;;;;;11.30;5.80;;;;;;;13.05;61.61;101285.09;5093876;28;20052;-74
2023/05/14 04:41:54;;;;;;;7.15;4.22;;;;;;;13.04;62.13;101283.41;5091215;28;20101;-73
2023/05/14 04:44:21;;;;;;;12.98;6.28;;;;;;;13.05;61.96;101277.16;5087132;28;20105;-73
2023/05/14 04:46:49;;;;;;;7.30;5.25;;;;;;;13.11;61.21;101279.47;5085430;28;20071;-72
2023/05/14 04:49:16;;;;;;;7.80;4.70;;;;;;;13.17;59.78;101278.25;5090994;28;20048;-73
2023/05/14 04:51:43;;;;;;;8.50;4.68;;;;;;;13.25;59.16;101275.19;5087426;28;20059;-74
2023/05/14 04:54:11;;;;;;;8.10;4.65;;;;;;;13.32;58.69;101274.72;5095980;28;20133;-74
2023/05/14 04:56:38;;;;;;;10.32;5.30;;;;;;;13.37;58.07;101285.00;5092636;28;20082;-72
2023/05/14 04:59:05;;;;;;;12.25;5.05;;;;;;;13.43;57.12;101280.22;5094697;28;20158;-74
2023/05/14 05:01:33;;;;;;;11.50;5.32;;;;;;;13.49;56.61;101275.50;5092877;28;20052;-74
2023/05/14 05:04:00;;;;;;;8.57;4.70;;;;;;;13.55;56.34;101273.31;5090467;28;20141;-73
2023/05/14 05:06:27;;;;;;;8.07;4.97;;;;;;;13.63;55.92;101279.00;5092741;28;20127;-74
2023/05/14 05:08:54;;;;;;;9.45;5.10;;;;;;;13.71;55.56;101275.88;5093994;28;20120;-73
2023/05/14 05:11:22;;;;;;;12.63;4.65;;;;;;;13.73;55.04;101281.91;5090158;28;20047;-74
2023/05/14 05:13:49;;;;;;;11.15;4.72;;;;;;;13.73;54.62;101276.63;5092510;28;20130;-73
2023/05/14 05:16:16;;;;;;;11.25;4.70;;;;;;;13.73;54.75;101273.13;5090914;28;20132;-74
2023/05/14 05:18:44;;;;;;;9.30;5.38;;;;;;;13.71;54.08;101273.25;5088412;28;20135;-74
2023/05/14 05:21:11;;;;;;;8.60;4.60;;;;;;;13.72;54.07;101284.69;5090658;28;20062;-73
2023/05/14 05:23:39;;;;;;;11.27;4.57;;;;;;;13.73;54.07;101270.50;5091616;28;20078;-73
2023/05/14 05:26:06;;;;;;;8.43;5.22;;;;;;;13.77;54.11;101282.59;5092541;28;21308;-74
2023/05/14 05:28:33;;;;;;;12.75;5.07;;;;;;;13.82;54.11;101270.75;5090631;28;20068;-73
2023/05/14 05:31:01;;;;;;;8.93;4.40;;;;;;;13.94;53.37;101272.66;5092415;28;20048;-73
2023/05/14 05:33:28;;;;;;;7.70;4.47;;;;;;;14.04;53.06;101272.06;5094126;28;20206;-73
2023/05/14 05:35:55;;;;;;;16.80;4.88;;;;;;;14.11;52.68;101274.25;5092581;28;20070;-73
2023/05/14 05:38:22;;;;;;;10.50;4.88;;;;;;;14.21;52.72;101263.06;5090989;28;20082;-73
2023/05/14 05:40:50;;;;;;;7.38;4.50;;;;;;;14.27;52.86;101260.88;5095076;28;20111;-72
2023/05/14 05:43:17;;;;;;;9.77;4.60;;;;;;;14.31;51.94;101267.66;5087583;28;20056;-73
2023/05/14 05:45:45;;;;;;;12.02;4.68;;;;;;;14.37;51.75;101263.81;5093193;28;20711;-74
2023/05/14 05:48:12;;;;;;;6.40;4.57;;;;;;;14.44;52.04;101265.09;5092758;28;20043;-73
2023/05/14 05:50:39;;;;;;;5.97;4.20;;;;;;;14.50;51.41;101263.84;5071801;28;20526;-72
2023/05/14 05:53:07;;;;;;;9.25;4.18;;;;;;;14.57;51.59;101262.53;5091174;28;20075;-73
2023/05/14 05:55:34;;;;;;;7.13;4.32;;;;;;;14.63;51.11;101256.81;5088827;28;20066;-73
2023/05/14 05:58:01;;;;;;;7.90;4.35;;;;;;;14.70;50.77;101258.13;5091270;28;20068;-73
2023/05/14 06:00:30;;;;;;;7.60;5.03;;;;;;;14.78;50.38;101265.56;5072382;28;20073;-73
2023/05/14 06:02:57;;;;;;;8.55;4.90;;;;;;;14.90;50.30;101259.44;5087338;28;20044;-73
2023/05/14 06:05:24;;;;;;;11.20;4.88;;;;;;;15.03;49.68;101259.47;5088214;28;20048;-74
2023/05/14 06:07:52;;;;;;;7.97;4.55;;;;;;;15.13;49.88;101266.72;5093246;28;20064;-73
2023/05/14 06:10:19;;;;;;;8.73;4.30;;;;;;;15.28;49.10;101263.97;5088452;28;20049;-73
2023/05/14 06:12:47;;;;;;;9.23;4.88;;;;;;;15.37;48.19;101263.31;5090357;28;20215;-73
2023/05/14 06:15:14;;;;;;;10.15;4.85;;;;;;;15.46;47.96;101262.69;5088872;28;20072;-73
2023/05/14 06:17:41;;;;;;;12.32;4.43;;;;;;;15.56;47.72;101265.56;5093175;28;20044;-73
2023/05/14 06:20:10;;;;;;;7.30;4.55;;;;;;;15.63;47.59;101258.88;5089876;28;20155;-73
2023/05/14 06:22:37;;;;;;;10.15;5.57;;;;;;;15.70;48.02;101261.00;5075065;28;20920;-73
2023/05/14 06:25:04;;;;;;;8.27;4.57;;;;;;;15.77;47.45;101269.41;5086696;28;20060;-74
2023/05/14 06:27:32;;;;;;;11.13;4.88;;;;;;;15.80;47.49;101263.84;5085139;28;20464;-73
2023/05/14 06:30:00;;;;;;;7.38;4.47;;;;;;;15.90;47.35;101266.72;5082829;28;20054;-73
2023/05/14 06:32:27;;;;;;;9.07;4.95;;;;;;;15.99;47.14;101259.91;5083401;28;20052;-73
2023/05/14 06:34:55;;;;;;;9.65;5.00;;;;;;;16.11;46.99;101261.66;5070137;28;20105;-73
2023/05/14 06:37:22;;;;;;;7.30;5.00;;;;;;;16.24;46.45;101254.50;5081661;28;20052;-73
2023/05/14 06:39:49;;;;;;;9.07;4.85;;;;;;;16.39;46.08;101250.75;5084871;28;20587;-73
2023/05/14 06:42:17;;;;;;;9.68;5.03;;;;;;;16.57;46.35;101260.97;5070814;28;20135;-73
2023/05/14 06:44:44;;;;;;;9.85;4.28;;;;;;;16.73;45.98;101250.94;5087030;28;20055;-73
2023/05/14 06:47:11;;;;;;;9.50;4.20;;;;;;;16.88;46.05;101257.75;5084321;28;20236;-73
2023/05/14 06:49:39;;;;;;;7.20;4.15;;;;;;;16.97;45.75;101258.88;5088503;28;20139;-73
2023/05/14 06:52:06;;;;;;;7.35;4.35;;;;;;;17.10;45.66;101262.28;5084289;28;20032;-74
2023/05/14 06:54:33;;;;;;;7.25;5.07;;;;;;;17.24;45.18;101260.38;5083500;28;20040;-73
2023/05/14 06:57:00;;;;;;;7.25;3.95;;;;;;;17.30;44.93;101266.09;5080829;28;20066;-73
2023/05/14 06:59:28;;;;;;;8.70;5.00;;;;;;;17.40;44.72;101269.75;5069433;28;20546;-74
2023/05/14 07:01:55;;;;;;;7.20;3.72;;;;;;;17.50;44.58;101266.38;5070743;28;20048;-74
2023/05/14 07:04:22;;;;;;;5.65;4.18;;;;;;;17.59;44.39;101265.66;5078608;28;20121;-73
2023/05/14 07:06:49;;;;;;;9.55;4.40;;;;;;;17.67;44.24;101261.41;5101716;28;20051;-73
2023/05/14 07:09:17;;;;;;;6.38;4.20;;;;;;;17.74;43.85;101264.47;5088182;28;20076;-72
2023/05/14 07:11:44;;;;;;;8.90;3.72;;;;;;;17.77;43.70;101263.38;5085341;28;20164;-72
2023/05/14 07:14:11;;;;;;;7.32;3.70;;;;;;;17.88;43.99;101264.25;5085062;28;20052;-72
2023/05/14 07:16:40;;;;;;;9.88;4.30;;;;;;;17.90;43.29;101256.13;5082615;28;20056;-71
2023/05/14 07:19:07;;;;;;;7.80;3.80;;;;;;;18.00;43.16;101254.41;5084969;28;20067;-71
2023/05/14 07:21:35;;;;;;;7.10;3.33;;;;;;;18.10;43.19;101254.50;5086250;28;20115;-71
2023/05/14 07:24:02;;;;;;;6.95;3.50;;;;;;;18.16;43.11;101257.53;5077726;28;20063;-70
2023/05/14 07:26:30;;;;;;;5.00;3.40;;;;;;;18.19;43.24;101251.97;5081446;28;20056;-70
2023/05/14 07:28:57;;;;;;;5.53;3.70;;;;;;;18.34;43.21;101249.03;5083418;28;20138;-71
2023/05/14 07:31:24;;;;;;;9.98;3.63;;;;;;;18.38;42.29;101247.81;5078921;28;20041;-72
2023/05/14 07:33:52;;;;;;;6.15;3.53;;;;;;;18.44;42.71;101252.63;5086522;28;20070;-71
2023/05/14 07:36:19;;;;;;;6.43;3.47;;;;;;;18.52;42.65;101242.19;5080693;28;20062;-72
2023/05/14 07:38:46;;;;;;;5.03;3.88;;;;;;;18.75;42.51;101244.78;5082031;28;20056;-71
2023/05/14 07:41:14;;;;;;;9.75;3.58;;;;;;;18.99;42.26;101248.06;5085528;28;20067;-73
2023/05/14 07:43:41;;;;;;;7.75;3.58;;;;;;;19.24;41.78;101236.16;5081876;28;20150;-72
2023/05/14 07:46:09;;;;;;;8.40;3.53;;;;;;;19.46;41.53;101236.00;5065531;28;20060;-72
2023/05/14 07:48:37;;;;;;;10.95;3.60;;;;;;;19.62;41.07;101235.50;5070548;28;20040;-72
2023/05/14 07:51:04;;;;;;;7.32;3.50;;;;;;;19.81;40.35;101234.75;5082347;28;20052;-72
2023/05/14 07:53:32;;;;;;;5.63;2.83;;;;;;;19.97;40.14;101229.75;5068097;28;20035;-73
2023/05/14 07:55:59;;;;;;;8.02;3.42;;;;;;;20.15;39.83;101219.22;5051940;28;20066;-74
2023/05/14 07:58:27;;;;;;;10.65;3.55;;;;;;;20.33;39.30;101221.22;5085453;28;20508;-72
2023/05/14 08:00:55;;;;;;;7.13;3.60;;;;;;;20.47;39.30;101219.00;5085486;28;20066;-72
2023/05/14 08:03:23;;;;;;;4.38;2.90;;;;;;;20.59;39.02;101219.72;5082389;28;20050;-72
2023/05/14 08:05:51;;;;;;;7.53;3.10;;;;;;;20.69;38.78;101220.56;5050662;28;20450;-72
2023/05/14 08:08:18;;;;;;;4.82;2.85;;;;;;;20.76;37.88;101214.63;5083108;28;20518;-71
2023/05/14 08:10:46;;;;;;;11.32;3.33;;;;;;;20.68;37.44;101220.72;5087424;28;20048;-72
2023/05/14 08:13:13;;;;;;;6.05;2.75;;;;;;;20.77;37.88;101214.53;5065313;28;20032;-72
2023/05/14 08:15:41;;;;;;;5.70;2.97;;;;;;;20.93;37.55;101211.25;5086029;28;20602;-71
2023/05/14 08:18:08;;;;;;;5.97;2.80;;;;;;;21.13;37.48;101218.25;5085312;28;20144;-72
2023/05/14 08:20:36;;;;;;;6.78;3.03;;;;;;;21.27;37.24;101216.13;5079355;28;20044;-73
2023/05/14 08:23:03;;;;;;;8.15;3.20;;;;;;;21.46;36.76;101213.41;5087097;28;20490;-71
2023/05/14 08:25:30;;;;;;;7.45;3.10;;;;;;;21.51;36.14;101215.63;5085833;28;20040;-73
2023/05/14 08:27:58;;;;;;;4.15;2.50;;;;;;;21.57;35.79;101210.56;5087746;28;20071;-72
2023/05/14 08:30:26;;;;;;;5.00;2.50;;;;;;;21.76;35.73;101214.13;5065885;28;20063;-72
2023/05/14 08:32:53;;;;;;;6.93;3.13;;;;;;;21.86;35.45;101214.91;5083618;28;20153;-73
2023/05/14 08:35:21;;;;;;;4.90;2.75;;;;;;;21.90;35.59;101208.28;5079884;28;20083;-72
2023/05/14 08:37:49;;;;;;;3.83;2.92;;;;;;;21.90;35.50;101202.91;5078787;28;20357;-72
2023/05/14 08:40:16;;;;;;;5.18;2.92;;;;;;;21.97;35.75;101201.28;5064524;28;20050;-72
2023/05/14 08:42:44;;;;;;;7.78;3.13;;;;;;;22.10;35.69;101198.25;5082462;28;20041;-72
2023/05/14 08:45:19;;;;;;;5.68;3.58;;;;;;;22.29;35.34;101197.31;5085058;28;20047;-73
2023/05/14 08:47:49;;;;;;;8.07;2.95;;;;;;;22.47;35.42;101195.50;5074216;28;20184;-72
2023/05/14 08:50:18;;;;;;;6.30;2.70;;;;;;;22.63;35.38;101198.31;5069029;28;20055;-72
2023/05/14 08:52:50;;;;;;;7.47;3.03;;;;;;;22.69;35.08;101191.47;5070172;28;20040;-73
2023/05/14 08:55:17;;;;;;;5.10;3.15;;;;;;;22.51;34.56;101194.16;5053831;28;20083;-72
2023/05/14 08:57:45;;;;;;;6.13;3.00;;;;;;;22.39;34.71;101187.38;5078840;28;20122;-72
2023/05/14 09:00:13;;;;;;;5.20;2.58;;;;;;;22.44;34.31;101182.38;5068044;28;20048;-72
2023/05/14 09:02:43;;;;;;;7.50;3.38;;;;;;;22.59;34.34;101185.34;5070026;28;20078;-72
2023/05/14 09:05:12;;;;;;;4.63;3.22;;;;;;;22.71;33.22;101178.75;5069404;28;20139;-72
2023/05/14 09:07:39;;;;;;;6.97;3.05;;;;;;;22.91;33.45;101172.19;5074314;28;20440;-72
2023/05/14 09:10:07;;;;;;;9.35;2.90;;;;;;;23.08;32.67;101177.69;5084424;28;20110;-73
2023/05/14 09:12:35;;;;;;;4.65;2.60;;;;;;;23.22;33.17;101167.19;5069584;28;20207;-73
2023/05/14 09:15:03;;;;;;;6.38;2.55;;;;;;;23.33;32.90;101170.63;5046184;28;20033;-73
2023/05/14 09:17:32;;;;;;;5.63;2.70;;;;;;;23.32;32.62;101164.38;5050806;28;20131;-72
2023/05/14 09:20:00;;;;;;;9.10;3.03;;;;;;;23.36;32.18;101162.22;5067867;28;20090;-72
2023/05/14 09:22:30;;;;;;;4.07;2.53;;;;;;;23.41;32.38;101155.34;5082814;28;20572;-72
2023/05/14 09:25:10;;;;;;;7.85;2.35;;;;;;;23.51;32.29;101149.88;5053380;28;20036;-72
2023/05/14 09:27:38;;;;;;;9.73;2.75;;;;;;;23.64;32.04;101150.31;5087781;28;20036;-72
2023/05/14 09:30:11;;;;;;;7.05;2.97;;;;;;;23.63;32.46;101145.03;5066872;28;20036;-73
2023/05/14 09:32:42;;;;;;;7.50;2.83;;;;;;;23.57;30.96;101138.47;5067481;28;20053;-73
2023/05/14 09:35:17;;;;;;;5.95;2.28;;;;;;;23.53;30.74;101134.44;5052926;28;20509;-72
2023/05/14 09:37:47;;;;;;;8.02;2.40;;;;;;;23.52;31.02;101132.75;5066741;28;20039;-72
2023/05/14 09:40:16;;;;;;;6.00;2.30;;;;;;;23.52;31.22;101134.59;5085473;28;20044;-72
2023/05/14 09:42:43;;;;;;;6.88;2.97;;;;;;;23.52;31.32;101123.84;5085861;28;20940;-72
2023/05/14 09:45:11;;;;;;;4.35;2.42;;;;;;;23.61;31.29;101128.25;5085219;28;20901;-72
2023/05/14 09:47:38;;;;;;;5.57;2.72;;;;;;;23.70;31.34;101122.75;5054071;28;20054;-72
2023/05/14 09:50:07;;;;;;;7.68;2.50;;;;;;;23.88;31.29;101111.03;5070520;28;20044;-73
2023/05/14 09:52:35;;;;;;;7.60;2.20;;;;;;;23.97;31.48;101108.19;5080875;28;20051;-73
2023/05/14 09:55:03;;;;;;;8.60;3.05;;;;;;;23.90;31.03;101112.53;5070474;28;20403;-73
2023/05/14 09:57:32;;;;;;;3.85;2.22;;;;;;;23.89;29.48;101107.34;5078641;28;20048;-71
2023/05/14 10:00:02;;;;;;;5.85;2.63;;;;;;;23.94;29.35;101105.81;5083221;28;20067;-72
2023/05/14 10:02:39;;;;;;;9.32;2.70;;;;;;;23.98;29.30;101103.66;5063443;28;20040;-71
2023/05/14 10:05:08;;;;;;;6.18;2.50;;;;;;;23.83;29.12;101103.47;5085382;28;20077;-72
2023/05/14 10:07:39;;;;;;;10.70;2.50;;;;;;;23.83;29.77;101094.56;5070836;28;20036;-72
2023/05/14 10:10:08;;;;;;;3.20;2.10;;;;;;;23.80;29.72;101094.88;5052664;28;20052;-72
2023/05/14 10:12:37;;;;;;;6.35;2.83;;;;;;;23.71;30.11;101094.88;5068712;28;20046;-72
2023/05/14 10:15:16;;;;;;;4.95;2.50;;;;;;;23.84;30.03;101086.31;5069608;28;20082;-72
2023/05/14 10:17:48;;;;;;;14.35;3.00;;;;;;;23.98;30.38;101088.34;5085135;28;20032;-72
2023/05/14 10:20:16;;;;;;;5.28;2.20;;;;;;;24.04;29.96;101086.00;5082333;28;20083;-71
2023/05/14 10:22:45;;;;;;;16.60;3.13;;;;;;;23.92;29.99;101085.50;5068521;28;20036;-71
2023/05/14 10:25:13;;;;;;;5.03;2.50;;;;;;;23.54;30.04;101085.03;5052712;28;20134;-72
2023/05/14 10:27:46;;;;;;;10.80;2.55;;;;;;;23.25;29.59;101069.34;5088215;28;20101;-72
2023/05/14 10:30:14;;;;;;;7.03;2.47;;;;;;;23.18;29.94;101069.13;5083660;28;20130;-72
2023/05/14 10:32:42;;;;;;;9.35;3.30;;;;;;;23.26;29.58;101071.00;5086641;28;20058;-72
2023/05/14 10:35:24;;;;;;;6.05;2.78;;;;;;;23.22;29.58;101064.28;5084046;28;20051;-73
2023/05/14 10:37:51;;;;;;;5.15;2.22;;;;;;;23.25;29.26;101066.66;5086642;28;20591;-72
2023/05/14 10:40:19;;;;;;;4.95;3.15;;;;;;;23.17;29.22;101056.72;5088501;28;20040;-72
2023/05/14 10:42:47;;;;;;;5.55;2.30;;;;;;;23.00;29.26;101050.41;5054111;28;20655;-72
2023/05/14 10:45:15;;;;;;;6.15;2.85;;;;;;;22.82;30.00;101054.16;5085069;28;20589;-73
2023/05/14 10:47:44;;;;;;;8.40;2.80;;;;;;;22.66;29.85;101057.59;5080577;28;20055;-71
2023/05/14 10:50:13;;;;;;;7.40;2.15;;;;;;;22.41;30.22;101049.38;5083861;28;20093;-71
2023/05/14 10:52:42;;;;;;;4.53;2.42;;;;;;;22.27;29.75;101049.13;5064678;28;20098;-71
2023/05/14 10:55:14;;;;;;;5.25;2.40;;;;;;;22.16;30.09;101047.53;5071223;28;20074;-72
2023/05/14 10:57:44;;;;;;;4.32;2.42;;;;;;;22.11;30.53;101041.72;5083965;28;20143;-73
2023/05/14 11:00:13;;;;;;;6.15;2.92;;;;;;;22.06;30.37;101042.19;5084562;28;20348;-72
2023/05/14 11:02:42;;;;;;;6.63;2.88;;;;;;;22.06;30.91;101044.88;5067776;28;20055;-73
2023/05/14 11:05:12;;;;;;;6.10;2.90;;;;;;;22.00;31.45;101051.72;5049263;28;20051;-73
2023/05/14 11:07:42;;;;;;;4.15;2.50;;;;;;;21.78;31.48;101048.66;5067904;28;20048;-73
2023/05/14 11:10:17;;;;;;;10.73;2.97;;;;;;;21.56;31.55;101047.25;5078435;28;20052;-73
2023/05/14 11:12:46;;;;;;;7.90;2.45;;;;;;;21.40;31.61;101045.25;5084764;28;20052;-72
2023/05/14 11:15:20;;;;;;;9.20;3.17;;;;;;;21.26;32.02;101041.22;5066731;28;20055;-72
2023/05/14 11:17:47;;;;;;;6.25;3.97;;;;;;;21.13;31.94;101041.56;5066950;28;20056;-72
2023/05/14 11:20:16;;;;;;;9.00;5.30;;;;;;;21.00;32.60;101033.03;5081871;28;20048;-73
2023/05/14 11:22:45;;;;;;;6.45;3.72;;;;;;;20.89;32.53;101039.44;5067550;28;20457;-72
2023/05/14 11:25:13;;;;;;;8.30;2.80;;;;;;;20.84;32.56;101035.50;5068742;28;20036;-72
2023/05/14 11:27:43;;;;;;;5.15;2.60;;;;;;;20.83;32.86;101031.13;5082415;28;20147;-72
2023/05/14 11:30:18;;;;;;;6.18;3.03;;;;;;;20.86;32.89;101030.84;5081746;28;20733;-72
2023/05/14 11:32:47;;;;;;;6.00;2.40;;;;;;;20.90;32.81;101029.56;5056720;28;20107;-72
2023/05/14 11:35:16;;;;;;;7.03;3.03;;;;;;;20.99;33.10;101029.50;5081188;28;20645;-71
2023/05/14 11:37:50;;;;;;;5.60;2.90;;;;;;;21.10;33.22;101028.47;5079888;28;20060;-71